RAM427 GMMN-GMAD
Flight info
| Callsign | RAM427 |
|---|---|
| Flight time | 0h 40m |
| Altitude | 27000 |
| Route | CSD UR975 EKTAL |
| Aircraft | A321/M-SDE3FGHIRWY/LB1 |
Departure
| Time | 2026-04-28 22:56 |
|---|---|
| Airport | Mohammed V International Airport (GMMN) |
Arrival
| Time | 2026-04-28 23:37 |
|---|---|
| Airport | Al Massira Airport (GMAD) |
| Time | Latitude | Longitude | Altitude | Speed | Heading |
|---|---|---|---|---|---|
| 2026-04-28 22:32 | 33.37356 | -7.58424 | 663 ft | 0 kts | 120° |
| 2026-04-28 22:49 | 33.37350 | -7.58411 | 663 ft | 3 kts | 118° |
| 2026-04-28 22:50 | 33.37334 | -7.58379 | 663 ft | 5 kts | 119° |
| 2026-04-28 22:50 | 33.37298 | -7.58338 | 663 ft | 8 kts | 160° |
| 2026-04-28 22:50 | 33.37225 | -7.58312 | 663 ft | 13 kts | 163° |
| 2026-04-28 22:50 | 33.37123 | -7.58278 | 663 ft | 15 kts | 164° |
| 2026-04-28 22:51 | 33.37035 | -7.58248 | 663 ft | 13 kts | 164° |
| 2026-04-28 22:51 | 33.36954 | -7.58242 | 663 ft | 11 kts | 223° |
| 2026-04-28 22:51 | 33.36926 | -7.58334 | 663 ft | 12 kts | 254° |
| 2026-04-28 22:51 | 33.36900 | -7.58434 | 663 ft | 9 kts | 251° |
| 2026-04-28 22:52 | 33.36836 | -7.58456 | 663 ft | 12 kts | 167° |
| 2026-04-28 22:52 | 33.36737 | -7.58422 | 663 ft | 16 kts | 164° |
| 2026-04-28 22:52 | 33.36612 | -7.58379 | 663 ft | 20 kts | 164° |
| 2026-04-28 22:52 | 33.36469 | -7.58331 | 663 ft | 21 kts | 163° |
| 2026-04-28 22:53 | 33.36326 | -7.58281 | 663 ft | 21 kts | 163° |
| 2026-04-28 22:53 | 33.36183 | -7.58232 | 663 ft | 21 kts | 164° |
| 2026-04-28 22:53 | 33.36034 | -7.58182 | 663 ft | 22 kts | 163° |
| 2026-04-28 22:53 | 33.35878 | -7.58129 | 663 ft | 23 kts | 165° |
| 2026-04-28 22:54 | 33.35720 | -7.58073 | 663 ft | 23 kts | 164° |
| 2026-04-28 22:54 | 33.35565 | -7.58019 | 663 ft | 22 kts | 164° |
| 2026-04-28 22:54 | 33.35418 | -7.57968 | 663 ft | 18 kts | 163° |
| 2026-04-28 22:54 | 33.35312 | -7.57940 | 663 ft | 15 kts | 186° |
| 2026-04-28 22:55 | 33.35245 | -7.58028 | 663 ft | 15 kts | 252° |
| 2026-04-28 22:55 | 33.35215 | -7.58152 | 663 ft | 14 kts | 254° |
| 2026-04-28 22:55 | 33.35226 | -7.58255 | 663 ft | 12 kts | 323° |
| 2026-04-28 22:55 | 33.35364 | -7.58307 | 663 ft | 43 kts | 344° |
| 2026-04-28 22:56 | 33.35893 | -7.58489 | 663 ft | 112 kts | 343° |
| 2026-04-28 22:56 | 33.36852 | -7.58818 | 664 ft | 169 kts | 343° |
| 2026-04-28 22:56 | 33.38069 | -7.59225 | 1036 ft | 185 kts | 342° |
| 2026-04-28 22:56 | 33.39301 | -7.59636 | 1851 ft | 180 kts | 341° |
| 2026-04-28 22:57 | 33.40446 | -7.60129 | 2563 ft | 171 kts | 323° |
| 2026-04-28 22:57 | 33.41127 | -7.61259 | 2838 ft | 175 kts | 277° |
| 2026-04-28 22:57 | 33.41021 | -7.62768 | 3118 ft | 187 kts | 252° |
| 2026-04-28 22:57 | 33.40382 | -7.64166 | 3438 ft | 200 kts | 224° |
| 2026-04-28 22:58 | 33.39070 | -7.64881 | 3708 ft | 219 kts | 194° |
| 2026-04-28 22:58 | 33.37517 | -7.65400 | 3991 ft | 237 kts | 209° |
| 2026-04-28 22:58 | 33.36205 | -7.66669 | 4349 ft | 252 kts | 224° |
| 2026-04-28 22:58 | 33.34832 | -7.68064 | 4853 ft | 264 kts | 218° |
| 2026-04-28 22:59 | 33.33333 | -7.69407 | 5557 ft | 268 kts | 217° |
| 2026-04-28 22:59 | 33.31837 | -7.70741 | 6260 ft | 272 kts | 217° |
| 2026-04-28 22:59 | 33.30303 | -7.72129 | 6948 ft | 277 kts | 218° |
| 2026-04-28 22:59 | 33.28768 | -7.73535 | 7626 ft | 282 kts | 218° |
| 2026-04-28 23:00 | 33.27190 | -7.74994 | 8330 ft | 287 kts | 218° |
| 2026-04-28 23:00 | 33.25617 | -7.76457 | 9016 ft | 291 kts | 219° |
| 2026-04-28 23:00 | 33.24010 | -7.77957 | 9702 ft | 296 kts | 219° |
| 2026-04-28 23:00 | 33.22369 | -7.79490 | 10364 ft | 301 kts | 219° |
| 2026-04-28 23:01 | 33.20686 | -7.81062 | 10724 ft | 317 kts | 219° |
| 2026-04-28 23:01 | 33.18883 | -7.82749 | 11045 ft | 333 kts | 219° |
| 2026-04-28 23:01 | 33.17054 | -7.84458 | 11573 ft | 340 kts | 219° |
| 2026-04-28 23:01 | 33.15163 | -7.86222 | 12268 ft | 343 kts | 219° |
| 2026-04-28 23:02 | 33.13288 | -7.87967 | 12942 ft | 345 kts | 219° |
| 2026-04-28 23:02 | 33.11390 | -7.89736 | 13615 ft | 346 kts | 219° |
| 2026-04-28 23:02 | 33.09491 | -7.91508 | 14243 ft | 349 kts | 219° |
| 2026-04-28 23:02 | 33.07586 | -7.93283 | 14829 ft | 353 kts | 219° |
| 2026-04-28 23:03 | 33.05624 | -7.95111 | 15410 ft | 356 kts | 219° |
| 2026-04-28 23:03 | 33.03674 | -7.96927 | 15990 ft | 359 kts | 219° |
| 2026-04-28 23:03 | 33.01708 | -7.98754 | 16541 ft | 362 kts | 219° |
| 2026-04-28 23:03 | 32.99714 | -8.00606 | 17082 ft | 365 kts | 219° |
| 2026-04-28 23:04 | 32.97668 | -8.02507 | 17627 ft | 368 kts | 219° |
| 2026-04-28 23:04 | 32.93469 | -8.06096 | 18665 ft | 375 kts | 211° |
| 2026-04-28 23:04 | 32.91162 | -8.07514 | 19186 ft | 377 kts | 205° |
| 2026-04-28 23:05 | 32.88714 | -8.08716 | 19708 ft | 380 kts | 202° |
| 2026-04-28 23:05 | 32.86220 | -8.09878 | 20228 ft | 382 kts | 202° |
| 2026-04-28 23:05 | 32.83706 | -8.11042 | 20744 ft | 384 kts | 202° |
| 2026-04-28 23:05 | 32.81196 | -8.12206 | 21250 ft | 386 kts | 202° |
| 2026-04-28 23:06 | 32.78677 | -8.13377 | 21748 ft | 388 kts | 202° |
| 2026-04-28 23:06 | 32.76136 | -8.14564 | 22239 ft | 389 kts | 202° |
| 2026-04-28 23:06 | 32.73571 | -8.15760 | 22761 ft | 390 kts | 202° |
| 2026-04-28 23:06 | 32.71038 | -8.16942 | 23264 ft | 391 kts | 202° |
| 2026-04-28 23:07 | 32.68513 | -8.18117 | 23813 ft | 390 kts | 202° |
| 2026-04-28 23:07 | 32.66000 | -8.19288 | 24409 ft | 388 kts | 202° |
| 2026-04-28 23:07 | 32.63456 | -8.20472 | 25016 ft | 386 kts | 202° |
| 2026-04-28 23:07 | 32.60993 | -8.21620 | 25558 ft | 385 kts | 202° |
| 2026-04-28 23:08 | 32.58478 | -8.22788 | 26013 ft | 386 kts | 202° |
| 2026-04-28 23:08 | 32.55942 | -8.23966 | 26420 ft | 389 kts | 202° |
| 2026-04-28 23:08 | 32.53396 | -8.25149 | 26812 ft | 390 kts | 202° |
| 2026-04-28 23:08 | 32.50892 | -8.26311 | 26896 ft | 391 kts | 202° |
| 2026-04-28 23:09 | 32.48347 | -8.27490 | 26900 ft | 391 kts | 202° |
| 2026-04-28 23:09 | 32.45779 | -8.28681 | 26902 ft | 391 kts | 202° |
| 2026-04-28 23:09 | 32.43203 | -8.29874 | 26903 ft | 391 kts | 202° |
| 2026-04-28 23:09 | 32.40652 | -8.31056 | 26901 ft | 391 kts | 202° |
| 2026-04-28 23:10 | 32.38125 | -8.32225 | 26902 ft | 391 kts | 202° |
| 2026-04-28 23:10 | 32.36446 | -8.33001 | 26902 ft | 390 kts | 202° |
| 2026-04-28 23:10 | 32.33053 | -8.34570 | 26901 ft | 391 kts | 202° |
| 2026-04-28 23:10 | 32.30518 | -8.35741 | 26900 ft | 390 kts | 202° |
| 2026-04-28 23:11 | 32.27980 | -8.36913 | 26901 ft | 391 kts | 202° |
| 2026-04-28 23:11 | 32.25447 | -8.38082 | 26903 ft | 390 kts | 202° |
| 2026-04-28 23:11 | 32.22924 | -8.39246 | 26903 ft | 390 kts | 202° |
| 2026-04-28 23:11 | 32.20382 | -8.40418 | 26904 ft | 390 kts | 202° |
| 2026-04-28 23:12 | 32.17827 | -8.41595 | 26905 ft | 390 kts | 202° |
| 2026-04-28 23:12 | 32.15291 | -8.42762 | 26905 ft | 390 kts | 203° |
| 2026-04-28 23:12 | 32.12780 | -8.43918 | 26906 ft | 390 kts | 202° |
| 2026-04-28 23:12 | 32.10251 | -8.45093 | 26906 ft | 389 kts | 204° |
| 2026-04-28 23:13 | 32.07771 | -8.46405 | 26904 ft | 389 kts | 207° |
| 2026-04-28 23:13 | 32.05333 | -8.47791 | 26905 ft | 389 kts | 207° |
| 2026-04-28 23:13 | 32.02883 | -8.49191 | 26905 ft | 389 kts | 207° |
| 2026-04-28 23:13 | 32.00435 | -8.50589 | 26905 ft | 390 kts | 207° |
| 2026-04-28 23:14 | 31.98002 | -8.51978 | 26908 ft | 390 kts | 207° |
| 2026-04-28 23:14 | 31.95569 | -8.53366 | 26911 ft | 390 kts | 207° |
| 2026-04-28 23:14 | 31.93105 | -8.54770 | 26913 ft | 390 kts | 207° |
| 2026-04-28 23:14 | 31.90658 | -8.56165 | 26913 ft | 390 kts | 207° |
| 2026-04-28 23:15 | 31.88207 | -8.57561 | 26915 ft | 390 kts | 207° |
| 2026-04-28 23:15 | 31.85769 | -8.58948 | 26916 ft | 390 kts | 207° |
| 2026-04-28 23:15 | 31.83312 | -8.60346 | 26918 ft | 389 kts | 207° |
| 2026-04-28 23:15 | 31.80846 | -8.61748 | 26918 ft | 389 kts | 207° |
| 2026-04-28 23:16 | 31.78392 | -8.63142 | 26916 ft | 389 kts | 207° |
| 2026-04-28 23:16 | 31.75921 | -8.64545 | 26915 ft | 389 kts | 207° |
| 2026-04-28 23:16 | 31.73495 | -8.65921 | 26914 ft | 389 kts | 207° |
| 2026-04-28 23:16 | 31.71018 | -8.67326 | 26912 ft | 390 kts | 207° |
| 2026-04-28 23:17 | 31.68569 | -8.68714 | 26915 ft | 390 kts | 207° |
| 2026-04-28 23:17 | 31.66085 | -8.70121 | 26921 ft | 390 kts | 207° |
| 2026-04-28 23:17 | 31.63611 | -8.71523 | 26921 ft | 390 kts | 207° |
| 2026-04-28 23:17 | 31.61154 | -8.72914 | 26921 ft | 390 kts | 207° |
| 2026-04-28 23:18 | 31.58656 | -8.74326 | 26921 ft | 389 kts | 207° |
| 2026-04-28 23:18 | 31.56178 | -8.75727 | 26923 ft | 388 kts | 207° |
| 2026-04-28 23:18 | 31.53727 | -8.77111 | 26927 ft | 387 kts | 207° |
| 2026-04-28 23:18 | 31.51231 | -8.78434 | 26932 ft | 386 kts | 205° |
| 2026-04-28 23:19 | 31.48758 | -8.79674 | 26935 ft | 386 kts | 205° |
| 2026-04-28 23:19 | 31.46262 | -8.80923 | 26887 ft | 389 kts | 205° |
| 2026-04-28 23:19 | 31.43746 | -8.82181 | 26623 ft | 389 kts | 205° |
| 2026-04-28 23:19 | 31.41268 | -8.83418 | 26364 ft | 387 kts | 205° |
| 2026-04-28 23:20 | 31.38769 | -8.84666 | 26081 ft | 385 kts | 205° |
| 2026-04-28 23:20 | 31.36301 | -8.85898 | 25726 ft | 383 kts | 205° |
| 2026-04-28 23:20 | 31.33794 | -8.87148 | 25244 ft | 384 kts | 205° |
| 2026-04-28 23:20 | 31.31317 | -8.88385 | 24661 ft | 384 kts | 205° |
| 2026-04-28 23:21 | 31.28834 | -8.89623 | 24024 ft | 384 kts | 205° |
| 2026-04-28 23:21 | 31.26363 | -8.90854 | 23375 ft | 385 kts | 205° |
| 2026-04-28 23:21 | 31.23866 | -8.92098 | 22720 ft | 386 kts | 205° |
| 2026-04-28 23:21 | 31.21353 | -8.93348 | 22064 ft | 387 kts | 205° |
| 2026-04-28 23:22 | 31.18865 | -8.94587 | 21470 ft | 387 kts | 205° |
| 2026-04-28 23:22 | 31.17193 | -8.95417 | 21135 ft | 384 kts | 205° |
| 2026-04-28 23:22 | 31.13923 | -8.97041 | 20520 ft | 379 kts | 205° |
| 2026-04-28 23:22 | 31.11490 | -8.98249 | 20060 ft | 376 kts | 205° |
| 2026-04-28 23:23 | 31.09045 | -8.99464 | 19575 ft | 374 kts | 205° |
| 2026-04-28 23:23 | 31.06630 | -9.00661 | 19074 ft | 372 kts | 205° |
| 2026-04-28 23:23 | 31.04257 | -9.01837 | 18596 ft | 370 kts | 205° |
| 2026-04-28 23:23 | 31.01853 | -9.03028 | 18097 ft | 368 kts | 205° |
| 2026-04-28 23:24 | 30.99480 | -9.04204 | 17623 ft | 367 kts | 205° |
| 2026-04-28 23:24 | 30.97068 | -9.05402 | 17141 ft | 365 kts | 205° |
| 2026-04-28 23:24 | 30.94726 | -9.06564 | 16674 ft | 363 kts | 205° |
| 2026-04-28 23:24 | 30.93150 | -9.07348 | 16373 ft | 361 kts | 205° |
| 2026-04-28 23:25 | 30.90069 | -9.08876 | 15756 ft | 359 kts | 204° |
| 2026-04-28 23:25 | 30.87766 | -9.10016 | 15297 ft | 357 kts | 204° |
| 2026-04-28 23:25 | 30.85488 | -9.11144 | 14851 ft | 355 kts | 204° |
| 2026-04-28 23:25 | 30.83200 | -9.12277 | 14405 ft | 353 kts | 204° |
| 2026-04-28 23:26 | 30.80917 | -9.13408 | 13950 ft | 351 kts | 204° |
| 2026-04-28 23:26 | 30.78669 | -9.14462 | 13512 ft | 348 kts | 198° |
| 2026-04-28 23:26 | 30.76243 | -9.14728 | 13089 ft | 344 kts | 176° |
| 2026-04-28 23:26 | 30.73867 | -9.14402 | 12719 ft | 338 kts | 172° |
| 2026-04-28 23:27 | 30.71545 | -9.14015 | 12270 ft | 335 kts | 172° |
| 2026-04-28 23:27 | 30.69241 | -9.13657 | 11814 ft | 333 kts | 173° |
| 2026-04-28 23:27 | 30.66920 | -9.13330 | 11479 ft | 326 kts | 173° |
| 2026-04-28 23:27 | 30.64670 | -9.13038 | 11143 ft | 320 kts | 174° |
| 2026-04-28 23:28 | 30.62466 | -9.12765 | 10790 ft | 314 kts | 174° |
| 2026-04-28 23:28 | 30.60281 | -9.12502 | 10442 ft | 310 kts | 174° |
| 2026-04-28 23:28 | 30.58124 | -9.12248 | 10102 ft | 305 kts | 174° |
| 2026-04-28 23:28 | 30.56004 | -9.12001 | 9754 ft | 300 kts | 174° |
| 2026-04-28 23:29 | 30.53945 | -9.11763 | 9422 ft | 296 kts | 173° |
| 2026-04-28 23:29 | 30.51885 | -9.11524 | 9031 ft | 294 kts | 173° |
| 2026-04-28 23:29 | 30.49847 | -9.11289 | 8611 ft | 292 kts | 173° |
| 2026-04-28 23:29 | 30.47824 | -9.11055 | 8287 ft | 290 kts | 173° |
| 2026-04-28 23:30 | 30.45818 | -9.10822 | 7923 ft | 288 kts | 174° |
| 2026-04-28 23:30 | 30.43830 | -9.10592 | 7560 ft | 284 kts | 174° |
| 2026-04-28 23:30 | 30.41857 | -9.10365 | 6974 ft | 281 kts | 174° |
| 2026-04-28 23:30 | 30.39906 | -9.10141 | 6330 ft | 279 kts | 174° |
| 2026-04-28 23:31 | 30.37974 | -9.09920 | 5695 ft | 277 kts | 174° |
| 2026-04-28 23:31 | 30.36068 | -9.09701 | 5226 ft | 266 kts | 174° |
| 2026-04-28 23:31 | 30.34260 | -9.09724 | 5022 ft | 254 kts | 195° |
| 2026-04-28 23:31 | 30.32754 | -9.10683 | 4895 ft | 241 kts | 226° |
| 2026-04-28 23:32 | 30.31871 | -9.12331 | 4662 ft | 239 kts | 252° |
| 2026-04-28 23:32 | 30.31568 | -9.14194 | 4370 ft | 236 kts | 268° |
| 2026-04-28 23:32 | 30.31589 | -9.16092 | 4084 ft | 234 kts | 274° |
| 2026-04-28 23:32 | 30.31658 | -9.17347 | 3872 ft | 232 kts | 275° |
| 2026-04-28 23:33 | 30.31776 | -9.19843 | 3467 ft | 230 kts | 274° |
| 2026-04-28 23:33 | 30.31830 | -9.21656 | 3169 ft | 223 kts | 272° |
| 2026-04-28 23:33 | 30.31867 | -9.23438 | 2933 ft | 216 kts | 272° |
| 2026-04-28 23:33 | 30.31900 | -9.25147 | 2722 ft | 207 kts | 272° |
| 2026-04-28 23:34 | 30.31932 | -9.26775 | 2410 ft | 199 kts | 272° |
| 2026-04-28 23:34 | 30.31966 | -9.28366 | 2128 ft | 191 kts | 272° |
| 2026-04-28 23:34 | 30.31998 | -9.29832 | 1886 ft | 174 kts | 272° |
| 2026-04-28 23:34 | 30.32028 | -9.31162 | 1637 ft | 160 kts | 272° |
| 2026-04-28 23:35 | 30.32056 | -9.32392 | 1415 ft | 146 kts | 272° |
| 2026-04-28 23:35 | 30.32083 | -9.33577 | 1248 ft | 144 kts | 272° |
| 2026-04-28 23:35 | 30.32119 | -9.34733 | 1105 ft | 143 kts | 271° |
| 2026-04-28 23:35 | 30.32146 | -9.35883 | 925 ft | 143 kts | 271° |
| 2026-04-28 23:36 | 30.32169 | -9.37026 | 732 ft | 142 kts | 271° |
| 2026-04-28 23:36 | 30.32198 | -9.38172 | 527 ft | 141 kts | 271° |
| 2026-04-28 23:36 | 30.32220 | -9.39298 | 329 ft | 139 kts | 270° |
| 2026-04-28 23:36 | 30.32244 | -9.40359 | 245 ft | 117 kts | 271° |
| 2026-04-28 23:37 | 30.32261 | -9.41110 | 231 ft | 68 kts | 272° |
| 2026-04-28 23:37 | 30.32271 | -9.41548 | 223 ft | 45 kts | 272° |
| 2026-04-28 23:37 | 30.32308 | -9.41856 | 218 ft | 33 kts | 291° |
| 2026-04-28 23:37 | 30.32402 | -9.42053 | 214 ft | 20 kts | 301° |
| 2026-04-28 23:38 | 30.32464 | -9.42166 | 213 ft | 14 kts | 310° |
| 2026-04-28 23:38 | 30.32538 | -9.42194 | 213 ft | 11 kts | 2° |
| 2026-04-28 23:38 | 30.32626 | -9.42190 | 212 ft | 13 kts | 2° |
| 2026-04-28 23:38 | 30.32692 | -9.42188 | 213 ft | 14 kts | 1° |
| 2026-04-28 23:39 | 30.32822 | -9.42157 | 214 ft | 14 kts | 55° |
| 2026-04-28 23:39 | 30.32831 | -9.42038 | 215 ft | 14 kts | 91° |
| 2026-04-28 23:39 | 30.32828 | -9.41922 | 217 ft | 14 kts | 91° |
| 2026-04-28 23:39 | 30.32826 | -9.41811 | 218 ft | 13 kts | 91° |